Mid Calder, United Kingdom
Current Conditions -  °F | °C
As of 3:20 PM on Friday 31 Oct 2014 (Local Time) from EGPH Reporting Station
Few Clouds Few Clouds  
Wind Chill: 64°   Ceiling: Unl
Heat Index: 64°   Visibility: 6mi
Dew Point: 55°   Wind: 16mph
Humidity: 73%   Direction: 200°SSW
Pressure: 29.68"   Gusts: NA
Location:  55.89°N, 3.48°W
Report Text: EGPH 311520Z 20014KT 9999 FEW030 18/13 Q1005
Loading
Personal Weather Stations






























Interactive Weather Map
Tropical Storm Tracking
New forecast layout! Learn more

10-Day Weather Forecast

Advertisements
Track Severe Weather on mobile